createdAt,value
2018-12-06T00:03:00.761Z,20.10
2018-12-06T00:08:19.768Z,20.10
2018-12-06T00:13:44.294Z,20.00
2018-12-06T00:19:10.701Z,20.00
2018-12-06T00:24:33.896Z,20.00
2018-12-06T00:30:08.820Z,20.00
2018-12-06T00:35:19.637Z,19.90
2018-12-06T00:40:34.472Z,19.90
2018-12-06T00:45:45.696Z,19.90
2018-12-06T00:51:10.723Z,19.90
2018-12-06T00:56:21.582Z,19.90
2018-12-06T01:01:32.778Z,19.80
2018-12-06T01:06:43.790Z,19.80
2018-12-06T01:17:50.578Z,19.80
2018-12-06T01:23:03.879Z,19.80
2018-12-06T01:28:14.856Z,19.80
2018-12-06T01:33:25.437Z,19.80
2018-12-06T01:38:36.562Z,19.80
2018-12-06T01:43:49.574Z,19.80
2018-12-06T01:49:00.814Z,19.70
2018-12-06T01:54:11.954Z,19.80
2018-12-06T01:59:23.214Z,19.70
2018-12-06T02:04:33.446Z,19.70
2018-12-06T02:09:47.804Z,19.70
2018-12-06T02:14:58.604Z,19.70
2018-12-06T02:20:20.965Z,19.70
2018-12-06T02:25:31.248Z,19.70
2018-12-06T02:30:52.721Z,19.60
2018-12-06T02:36:03.575Z,19.60
2018-12-06T02:47:10.354Z,19.60
2018-12-06T02:52:21.836Z,19.60
2018-12-06T03:02:46.610Z,19.70
2018-12-06T03:07:58.698Z,19.60
2018-12-06T03:13:11.730Z,19.60
2018-12-06T03:18:23.840Z,19.60
2018-12-06T03:23:34.662Z,19.60
2018-12-06T03:30:10.903Z,19.60
2018-12-06T03:35:22.334Z,19.60
2018-12-06T03:40:39.470Z,19.60
2018-12-06T03:45:51.585Z,19.60
2018-12-06T03:51:24.594Z,19.60
2018-12-06T03:56:35.825Z,19.60
2018-12-06T04:07:11.640Z,19.60
2018-12-06T04:21:41.213Z,19.60
2018-12-06T04:26:52.668Z,19.60
2018-12-06T04:32:03.862Z,19.60
2018-12-06T04:37:14.704Z,19.60
2018-12-06T04:42:25.678Z,19.60
2018-12-06T04:47:42.308Z,19.50
2018-12-06T04:52:59.729Z,19.50
2018-12-06T04:58:09.549Z,19.50
2018-12-06T05:03:21.230Z,19.50
2018-12-06T05:08:32.699Z,19.50
2018-12-06T05:14:08.805Z,19.50
2018-12-06T05:19:19.701Z,19.50
2018-12-06T05:24:30.789Z,19.60
2018-12-06T05:29:42.765Z,19.60
2018-12-06T05:34:53.818Z,19.60
2018-12-06T05:40:10.764Z,19.70
2018-12-06T05:45:21.568Z,19.70
2018-12-06T05:50:33.150Z,19.70
2018-12-06T05:55:43.702Z,19.70
2018-12-06T06:00:54.797Z,19.70
2018-12-06T06:06:05.576Z,19.70
2018-12-06T06:11:16.606Z,19.60
2018-12-06T06:16:27.596Z,19.60
2018-12-06T06:22:10.521Z,19.60
2018-12-06T06:32:32.386Z,19.70
2018-12-06T06:38:00.620Z,19.60
2018-12-06T06:43:10.876Z,19.50
2018-12-06T06:48:21.621Z,19.50
2018-12-06T06:53:52.323Z,19.60
2018-12-06T06:59:03.840Z,19.50
2018-12-06T07:04:14.713Z,19.60
2018-12-06T07:09:25.581Z,19.60
2018-12-06T07:14:58.659Z,19.60
2018-12-06T07:20:10.300Z,19.60
2018-12-06T07:25:22.200Z,19.60
2018-12-06T07:30:42.322Z,19.60
2018-12-06T07:35:53.722Z,19.50
2018-12-06T07:41:04.572Z,19.60
2018-12-06T07:46:15.872Z,19.60
2018-12-06T07:57:14.495Z,19.60
2018-12-06T08:02:30.425Z,19.50
2018-12-06T08:07:42.589Z,19.50
2018-12-06T08:13:01.819Z,19.50
2018-12-06T08:18:16.976Z,19.50
2018-12-06T08:23:34.716Z,19.50
2018-12-06T08:28:46.639Z,19.40
2018-12-06T08:34:05.951Z,19.50
2018-12-06T08:39:18.706Z,19.50
2018-12-06T08:44:29.767Z,19.50
2018-12-06T08:54:59.599Z,19.60
2018-12-06T09:00:14.634Z,19.50
2018-12-06T09:05:36.610Z,19.50
2018-12-06T09:11:06.467Z,19.50
2018-12-06T09:16:19.740Z,19.50
2018-12-06T09:21:30.790Z,19.50
2018-12-06T09:26:41.706Z,19.50
2018-12-06T09:32:24.469Z,19.50
2018-12-06T09:37:39.541Z,19.50
2018-12-06T09:42:54.457Z,19.50
2018-12-06T09:48:07.583Z,19.50
2018-12-06T09:53:21.881Z,19.50
2018-12-06T09:58:37.604Z,19.50
2018-12-06T10:10:41.445Z,19.60
2018-12-06T10:15:52.582Z,19.50
2018-12-06T10:21:07.467Z,19.40
2018-12-06T10:26:26.342Z,19.40
2018-12-06T10:31:43.541Z,19.50
2018-12-06T10:42:35.284Z,19.60
2018-12-06T10:47:47.812Z,19.60
2018-12-06T10:53:03.694Z,19.50
2018-12-06T10:58:17.573Z,19.50
2018-12-06T11:03:53.337Z,19.50
2018-12-06T11:09:11.360Z,19.50
2018-12-06T11:14:55.039Z,19.50
2018-12-06T11:20:06.548Z,19.50
2018-12-06T11:25:19.571Z,19.50
2018-12-06T11:33:20.414Z,19.50
2018-12-06T11:38:34.772Z,19.40
2018-12-06T11:43:54.702Z,19.50
2018-12-06T11:49:09.877Z,19.50
2018-12-06T11:57:35.295Z,19.50
2018-12-06T12:03:19.495Z,19.50
2018-12-06T12:06:20.457Z,19.50
2018-12-06T12:17:22.794Z,19.70
2018-12-06T12:22:32.557Z,19.60
2018-12-06T12:27:47.574Z,19.50
2018-12-06T12:33:05.642Z,19.50
2018-12-06T12:38:18.873Z,19.50
2018-12-06T12:43:41.796Z,19.50
2018-12-06T12:48:57.373Z,19.60
2018-12-06T12:54:08.302Z,19.60
2018-12-06T12:59:22.683Z,19.60
2018-12-06T13:04:32.806Z,19.60
2018-12-06T13:09:56.662Z,19.60
2018-12-06T13:15:09.378Z,19.60
2018-12-06T13:20:22.495Z,19.60
2018-12-06T13:25:40.627Z,19.60
2018-12-06T13:30:59.677Z,19.60
2018-12-06T13:36:11.005Z,19.60
2018-12-06T13:41:24.413Z,19.50
2018-12-06T13:46:34.692Z,19.50
2018-12-06T13:51:51.592Z,19.60
2018-12-06T13:57:05.831Z,19.50
2018-12-06T14:02:47.646Z,19.60
2018-12-06T14:08:01.701Z,19.50
2018-12-06T14:13:11.882Z,19.60
2018-12-06T14:18:23.297Z,19.60
2018-12-06T14:23:36.770Z,19.60
2018-12-06T14:34:17.971Z,19.70
2018-12-06T14:39:33.307Z,19.60
2018-12-06T14:44:50.595Z,19.60
2018-12-06T14:50:05.852Z,19.60
2018-12-06T14:55:39.502Z,19.50
2018-12-06T15:00:58.594Z,19.50
2018-12-06T15:06:08.468Z,25.30
2018-12-06T15:11:20.659Z,32.60
2018-12-06T15:16:31.602Z,36.20
2018-12-06T15:21:42.629Z,38.30
2018-12-06T15:29:20.765Z,39.40
2018-12-06T15:34:31.689Z,39.30
2018-12-06T15:39:45.534Z,38.00
2018-12-06T15:45:03.777Z,36.30
2018-12-06T15:50:20.550Z,34.50
2018-12-06T15:55:32.420Z,32.80
2018-12-06T16:00:44.526Z,31.20
2018-12-06T16:05:59.733Z,29.90
2018-12-06T16:17:05.533Z,27.50
2018-12-06T16:22:22.218Z,26.60
2018-12-06T16:32:56.475Z,25.30
2018-12-06T16:38:07.790Z,24.60
2018-12-06T16:43:19.704Z,24.10
2018-12-06T16:48:33.521Z,23.70
2018-12-06T16:53:44.613Z,23.40
2018-12-06T16:58:56.671Z,23.20
2018-12-06T17:04:11.629Z,22.90
2018-12-06T17:09:22.810Z,22.70
2018-12-06T17:14:37.308Z,22.40
2018-12-06T17:19:49.058Z,22.20
2018-12-06T17:24:59.583Z,21.90
2018-12-06T17:30:13.743Z,22.50
2018-12-06T17:35:24.662Z,26.10
2018-12-06T17:40:36.426Z,30.80
2018-12-06T17:45:46.660Z,33.50
2018-12-06T17:51:01.306Z,33.80
2018-12-06T17:56:13.204Z,33.00
2018-12-06T18:01:24.897Z,31.70
2018-12-06T18:06:38.347Z,30.40
2018-12-06T18:11:49.548Z,29.10
2018-12-06T18:16:59.543Z,28.00
2018-12-06T18:22:13.993Z,27.00
2018-12-06T18:27:30.452Z,26.20
2018-12-06T18:32:49.637Z,25.40
2018-12-06T18:38:01.323Z,24.70
2018-12-06T18:43:20.328Z,24.10
2018-12-06T18:48:31.309Z,23.50
2018-12-06T18:53:42.899Z,23.20
2018-12-06T18:58:55.788Z,22.90
2018-12-06T19:09:26.948Z,22.40
2018-12-06T19:14:37.764Z,22.20
2018-12-06T19:19:52.555Z,22.00
2018-12-06T19:25:03.807Z,25.50
2018-12-06T19:30:15.882Z,31.30
2018-12-06T19:35:28.315Z,33.10
2018-12-06T19:40:40.596Z,32.80
2018-12-06T19:45:51.541Z,31.60
2018-12-06T19:51:02.980Z,30.40
2018-12-06T19:56:13.756Z,29.10
2018-12-06T20:01:24.655Z,28.00
2018-12-06T20:06:38.573Z,26.90
2018-12-06T20:11:53.554Z,26.10
2018-12-06T20:17:05.648Z,25.30
2018-12-06T20:22:15.540Z,24.60
2018-12-06T20:27:26.773Z,24.00
2018-12-06T20:32:37.884Z,23.50
2018-12-06T20:42:59.453Z,22.90
2018-12-06T20:48:10.897Z,22.60
2018-12-06T20:53:22.689Z,22.30
2018-12-06T20:58:35.614Z,22.10
2018-12-06T21:04:01.868Z,21.90
2018-12-06T21:09:12.794Z,21.70
2018-12-06T21:22:05.891Z,21.40
2018-12-06T21:27:25.677Z,21.30
2018-12-06T21:32:36.858Z,21.10
2018-12-06T21:42:59.827Z,21.10
2018-12-06T21:48:10.980Z,20.90
2018-12-06T21:53:21.594Z,20.80
2018-12-06T21:58:34.666Z,20.80
2018-12-06T22:03:45.769Z,20.70
2018-12-06T22:08:56.614Z,20.70
2018-12-06T22:19:20.397Z,20.70
2018-12-06T22:24:31.829Z,20.60
2018-12-06T22:29:42.645Z,20.50
2018-12-06T22:34:53.684Z,20.50
2018-12-06T22:46:32.569Z,20.40
2018-12-06T22:51:43.908Z,20.40
2018-12-06T22:56:54.649Z,20.30
2018-12-06T23:07:16.717Z,20.30
2018-12-06T23:12:27.611Z,20.30
2018-12-06T23:22:49.633Z,20.40
2018-12-06T23:28:01.301Z,20.20
2018-12-06T23:33:11.652Z,20.20
2018-12-06T23:38:22.816Z,20.20
2018-12-06T23:43:33.799Z,20.20
2018-12-06T23:48:44.848Z,20.20
2018-12-06T23:54:15.552Z,20.20
2018-12-06T23:59:26.710Z,20.20
